CheckWX is a tool to help pilots better visualize weather data.  It is not intended as a substitute for an official pre-flight weather briefing.

19:56:51 UTC

CYQQ METAR
Comox Airport
Comox, Canada
Current

57 mins ago

CYQQ 261900Z 01009KT 20SM FEW250 21/08 A2987 RMK CI2 SLP116
Observed
May-26 @ 19:00 UTC
Wind
  • 010° at 9 KTS
Visibility
20 SM
Flight Rules
VFR
Cloud Levels
  • Few at 25,000' AGL
Temperature
21°C / 70°F
Dewpoint
C / 46°F
Humidity
43%
Altimeter
29.87" Hg
Pressure
1011.52 hPa
Previous

2 hours ago

CYQQ 261800Z 34006KT 20SM FEW250 18/08 A2989 RMK CI2 SLP121
Observed
May-26 @ 18:00 UTC
Wind
  • 340° at 6 KTS
Visibility
20 SM
Flight Rules
VFR
Cloud Levels
  • Few at 25,000' AGL
Temperature
18°C / 64°F
Dewpoint
C / 46°F
Humidity
52%
Altimeter
29.89" Hg
Pressure
1012.22 hPa
Previous

3 hours ago

CYQQ 261700Z 35010KT 20SM FEW250 17/07 A2990 RMK CI2 SLP126
Observed
May-26 @ 17:00 UTC
Wind
  • 350° at 10 KTS
Visibility
20 SM
Flight Rules
VFR
Cloud Levels
  • Few at 25,000' AGL
Temperature
17°C / 63°F
Dewpoint
C / 45°F
Humidity
52%
Altimeter
29.9" Hg
Pressure
1012.52 hPa